Birmingham, AL (35238)

3:57 AM CDT on August 30, 2015 (GMT -0500)
UAB HHB | | Change Station
CLOSE
Current Station
Personal Weather Station
Location: Birmingham, AL
Elevation: 617 ft
Nearby Weather Stations

Elev 617 ft 33.50 °N, 86.81 °W | Updated 55 seconds ago

Rain
Rain
71.0 °F
Feels Like 71.0 °F
N
3.0
Wind Variable Wind from NE
Gusts 9.0 mph

Today
High -- | Low -- °F
--% Chance of Precip.
Yesterday
High -- | Low -- °F
Precip. -- in
6:19 AM 7:15 PM
Waxing Gibbous, 99% visible
Pressure 30.07 in
Visibility 8.0 miles
Clouds Scattered Clouds 2600 ft
Mostly Cloudy 4700 ft
Mostly Cloudy 11000 ft
Dew Point 69 °F
Humidity 92%
Rainfall 0.09 in
Snow Depth Not available.
UV 0 out of 12
Pollen 8.50 out of 12
Air Quality Not available.
Flu Activity Not available.
METAR KBHM 300853Z 06003KT 8SM -RA SCT026 BKN047 BKN110 21/20 A3010 RMK AO2 SLP183 P0003 60003 T02110200 55006 $
Pressure 30.07 in
Visibility 8.0 miles
Clouds Scattered Clouds 2600 ft
Mostly Cloudy 4700 ft
Mostly Cloudy 11000 ft
Dew Point 69 °F
Humidity 92%
Rainfall 0.09 in
Snow Depth Not available.
UV 0 out of 12
Pollen 8.50 out of 12
Air Quality Not available.
Flu Activity Not available.
METAR KBHM 300853Z 06003KT 8SM -RA SCT026 BKN047 BKN110 21/20 A3010 RMK AO2 SLP183 P0003 60003 T02110200 55006 $

10-Day Weather Forecast

×

Almanac

Astronomy

Aug. 30, 2015 Rise Set
Actual Time
Civil Twilight
Nautical Twilight
Astronomical Twilight
Moon
Length of Visible Light
Length of Day
Tomorrow will be .
, % of the Moon is Illuminated

Today's Extremes

State Highs State Lows

Community

WunderPhotos

Upload Photos

1,850,909 photos uploaded!

WunderBlogs® & News

Nearby

Air Quality

  Air Quality AQ Index Pollutant
Not available.

Snow Depth

Station Depth Elevation

Earthquake Activity

City Distance Mag. Time & Date
Minimum magnitude displayed is 2.5.

Coastal Water Temperatures

Place Temperature

Stations

Nearby Weather Stations

Station Location Temp. Windchill Dew Point Humidity Wind Precip. Elev Updated Type